sensor_id;sensor_type;location;lat;lon;timestamp;pressure;altitude;pressure_sealevel;temperature;humidity
64908;BME280;69061;52.236;5.188;2023-04-07T00:02:17;101406.63;;;10.66;90.63
64908;BME280;69061;52.236;5.188;2023-04-07T00:04:44;101413.44;;;10.64;90.49
64908;BME280;69061;52.236;5.188;2023-04-07T00:07:11;101414.13;;;10.60;90.71
64908;BME280;69061;52.236;5.188;2023-04-07T00:09:39;101419.03;;;10.58;90.93
64908;BME280;69061;52.236;5.188;2023-04-07T00:12:05;101417.22;;;10.63;91.17
64908;BME280;69061;52.236;5.188;2023-04-07T00:14:32;101406.22;;;10.64;91.05
64908;BME280;69061;52.236;5.188;2023-04-07T00:16:58;101412.31;;;10.65;90.56
64908;BME280;69061;52.236;5.188;2023-04-07T00:19:25;101410.44;;;10.65;90.75
64908;BME280;69061;52.236;5.188;2023-04-07T00:21:51;101409.72;;;10.68;91.09
64908;BME280;69061;52.236;5.188;2023-04-07T00:24:18;101412.38;;;10.68;90.82
64908;BME280;69061;52.236;5.188;2023-04-07T00:26:46;101415.03;;;10.68;90.66
64908;BME280;69061;52.236;5.188;2023-04-07T00:29:12;101415.03;;;10.68;90.87
64908;BME280;69061;52.236;5.188;2023-04-07T00:31:39;101417.34;;;10.70;90.96
64908;BME280;69061;52.236;5.188;2023-04-07T00:34:06;101419.31;;;10.73;91.39
64908;BME280;69061;52.236;5.188;2023-04-07T00:36:32;101406.00;;;10.73;91.30
64908;BME280;69061;52.236;5.188;2023-04-07T00:38:59;101409.81;;;10.72;90.60
64908;BME280;69061;52.236;5.188;2023-04-07T00:41:25;101406.72;;;10.70;90.12
64908;BME280;69061;52.236;5.188;2023-04-07T00:43:53;101419.66;;;10.71;90.32
64908;BME280;69061;52.236;5.188;2023-04-07T00:46:21;101418.53;;;10.72;90.84
64908;BME280;69061;52.236;5.188;2023-04-07T00:48:48;101412.53;;;10.75;91.21
64908;BME280;69061;52.236;5.188;2023-04-07T00:51:14;101420.13;;;10.77;91.50
64908;BME280;69061;52.236;5.188;2023-04-07T00:53:41;101425.91;;;10.79;91.38
64908;BME280;69061;52.236;5.188;2023-04-07T00:56:08;101422.88;;;10.81;91.20
64908;BME280;69061;52.236;5.188;2023-04-07T00:58:35;101424.44;;;10.82;90.78
64908;BME280;69061;52.236;5.188;2023-04-07T01:01:06;101432.41;;;10.82;91.03
64908;BME280;69061;52.236;5.188;2023-04-07T01:03:38;101425.91;;;10.79;89.87
64908;BME280;69061;52.236;5.188;2023-04-07T01:06:07;101427.13;;;10.66;91.34
64908;BME280;69061;52.236;5.188;2023-04-07T01:08:41;101428.13;;;10.77;90.18
64908;BME280;69061;52.236;5.188;2023-04-07T01:11:19;101434.22;;;10.77;90.32
64908;BME280;69061;52.236;5.188;2023-04-07T01:13:48;101421.69;;;10.78;89.95
64908;BME280;69061;52.236;5.188;2023-04-07T01:16:22;101413.56;;;10.71;90.20
64908;BME280;69061;52.236;5.188;2023-04-07T01:18:52;101424.50;;;10.85;90.39
64908;BME280;69061;52.236;5.188;2023-04-07T01:21:21;101425.69;;;10.88;89.74
64908;BME280;69061;52.236;5.188;2023-04-07T01:24:20;101417.38;;;10.89;90.07
64908;BME280;69061;52.236;5.188;2023-04-07T01:26:50;101413.25;;;10.92;89.47
64908;BME280;69061;52.236;5.188;2023-04-07T01:29:36;101411.63;;;10.87;89.67
64908;BME280;69061;52.236;5.188;2023-04-07T01:32:05;101408.56;;;10.85;89.13
64908;BME280;69061;52.236;5.188;2023-04-07T01:34:35;101416.94;;;10.87;89.57
64908;BME280;69061;52.236;5.188;2023-04-07T01:37:03;101417.78;;;10.91;89.49
64908;BME280;69061;52.236;5.188;2023-04-07T01:39:32;101413.94;;;10.89;89.13
64908;BME280;69061;52.236;5.188;2023-04-07T01:42:00;101418.88;;;10.90;89.68
64908;BME280;69061;52.236;5.188;2023-04-07T01:44:27;101416.94;;;10.87;89.66
64908;BME280;69061;52.236;5.188;2023-04-07T01:46:56;101430.31;;;10.91;89.77
64908;BME280;69061;52.236;5.188;2023-04-07T01:49:24;101423.81;;;10.88;89.08
64908;BME280;69061;52.236;5.188;2023-04-07T01:51:51;101433.66;;;10.88;89.45
64908;BME280;69061;52.236;5.188;2023-04-07T01:54:18;101429.03;;;10.85;89.11
64908;BME280;69061;52.236;5.188;2023-04-07T01:56:45;101431.78;;;10.88;88.82
64908;BME280;69061;52.236;5.188;2023-04-07T01:59:12;101434.00;;;10.86;89.04
64908;BME280;69061;52.236;5.188;2023-04-07T02:01:39;101441.63;;;10.88;89.89
64908;BME280;69061;52.236;5.188;2023-04-07T02:04:11;101429.88;;;10.89;90.17
64908;BME280;69061;52.236;5.188;2023-04-07T02:06:42;101438.66;;;10.89;90.62
64908;BME280;69061;52.236;5.188;2023-04-07T02:09:10;101437.22;;;10.95;90.65
64908;BME280;69061;52.236;5.188;2023-04-07T02:11:39;101436.13;;;10.97;90.41
64908;BME280;69061;52.236;5.188;2023-04-07T02:14:08;101423.19;;;10.95;89.66
64908;BME280;69061;52.236;5.188;2023-04-07T02:16:35;101423.59;;;10.97;89.89
64908;BME280;69061;52.236;5.188;2023-04-07T02:19:02;101421.63;;;10.94;89.72
64908;BME280;69061;52.236;5.188;2023-04-07T02:21:32;101425.84;;;10.95;89.23
64908;BME280;69061;52.236;5.188;2023-04-07T02:24:00;101432.63;;;10.92;89.14
64908;BME280;69061;52.236;5.188;2023-04-07T02:26:26;101432.19;;;10.90;88.87
64908;BME280;69061;52.236;5.188;2023-04-07T02:28:53;101430.22;;;10.87;88.85
64908;BME280;69061;52.236;5.188;2023-04-07T02:31:19;101435.16;;;10.85;89.70
64908;BME280;69061;52.236;5.188;2023-04-07T02:33:46;101443.88;;;10.86;89.33
64908;BME280;69061;52.236;5.188;2023-04-07T02:36:12;101436.66;;;10.86;89.92
64908;BME280;69061;52.236;5.188;2023-04-07T02:38:40;101441.97;;;10.86;89.63
64908;BME280;69061;52.236;5.188;2023-04-07T02:41:07;101424.00;;;10.79;88.53
64908;BME280;69061;52.236;5.188;2023-04-07T02:43:33;101430.16;;;10.84;89.60
64908;BME280;69061;52.236;5.188;2023-04-07T02:45:59;101435.16;;;10.85;89.39
64908;BME280;69061;52.236;5.188;2023-04-07T02:48:26;101433.94;;;10.83;89.12
64908;BME280;69061;52.236;5.188;2023-04-07T02:50:53;101431.22;;;10.79;88.89
64908;BME280;69061;52.236;5.188;2023-04-07T02:53:19;101435.06;;;10.82;89.21
64908;BME280;69061;52.236;5.188;2023-04-07T02:55:47;101431.66;;;10.81;89.52
64908;BME280;69061;52.236;5.188;2023-04-07T02:58:14;101426.34;;;10.81;88.83
64908;BME280;69061;52.236;5.188;2023-04-07T03:00:40;101419.13;;;10.82;89.22
64908;BME280;69061;52.236;5.188;2023-04-07T03:03:07;101427.78;;;10.78;88.99
64908;BME280;69061;52.236;5.188;2023-04-07T03:05:33;101428.13;;;10.77;89.08
64908;BME280;69061;52.236;5.188;2023-04-07T03:08:00;101426.66;;;10.79;89.46
64908;BME280;69061;52.236;5.188;2023-04-07T03:10:26;101426.59;;;10.76;89.44
64908;BME280;69061;52.236;5.188;2023-04-07T03:12:55;101419.03;;;10.78;88.82
64908;BME280;69061;52.236;5.188;2023-04-07T03:15:22;101425.06;;;10.75;89.66
64908;BME280;69061;52.236;5.188;2023-04-07T03:17:48;101423.84;;;10.72;89.53
64908;BME280;69061;52.236;5.188;2023-04-07T03:20:15;101427.63;;;10.71;88.86
64908;BME280;69061;52.236;5.188;2023-04-07T03:22:42;101430.38;;;10.75;89.60
64908;BME280;69061;52.236;5.188;2023-04-07T03:25:09;101423.59;;;10.77;88.96
64908;BME280;69061;52.236;5.188;2023-04-07T03:27:37;101417.00;;;10.71;89.43
64908;BME280;69061;52.236;5.188;2023-04-07T03:30:06;101426.59;;;10.76;88.75
64908;BME280;69061;52.236;5.188;2023-04-07T03:32:33;101432.69;;;10.76;88.90
64908;BME280;69061;52.236;5.188;2023-04-07T03:35:00;101430.38;;;10.75;88.99
64908;BME280;69061;52.236;5.188;2023-04-07T03:37:26;101420.00;;;10.70;89.29
64908;BME280;69061;52.236;5.188;2023-04-07T03:39:53;101431.84;;;10.72;88.85
64908;BME280;69061;52.236;5.188;2023-04-07T03:42:19;101428.47;;;10.75;89.19
64908;BME280;69061;52.236;5.188;2023-04-07T03:44:46;101437.28;;;10.79;89.43
64908;BME280;69061;52.236;5.188;2023-04-07T03:47:14;101441.22;;;10.86;89.88
64908;BME280;69061;52.236;5.188;2023-04-07T03:49:41;101436.81;;;10.93;90.05
64908;BME280;69061;52.236;5.188;2023-04-07T03:52:07;101443.66;;;10.94;89.54
64908;BME280;69061;52.236;5.188;2023-04-07T03:54:34;101440.72;;;11.00;89.54
64908;BME280;69061;52.236;5.188;2023-04-07T03:57:00;101433.25;;;11.05;89.62
64908;BME280;69061;52.236;5.188;2023-04-07T03:59:27;101433.59;;;11.04;88.66
64908;BME280;69061;52.236;5.188;2023-04-07T04:01:54;101439.53;;;10.97;89.10
64908;BME280;69061;52.236;5.188;2023-04-07T04:04:22;101449.06;;;10.98;88.68
64908;BME280;69061;52.236;5.188;2023-04-07T04:06:49;101440.31;;;10.98;88.59
64908;BME280;69061;52.236;5.188;2023-04-07T04:09:16;101442.63;;;10.99;88.35
64908;BME280;69061;52.236;5.188;2023-04-07T04:11:43;101438.69;;;10.93;87.80
64908;BME280;69061;52.236;5.188;2023-04-07T04:14:09;101446.69;;;10.93;87.50
64908;BME280;69061;52.236;5.188;2023-04-07T04:16:36;101454.16;;;10.87;87.18
64908;BME280;69061;52.236;5.188;2023-04-07T04:19:03;101456.75;;;10.84;87.06
64908;BME280;69061;52.236;5.188;2023-04-07T04:21:31;101456.69;;;10.80;86.98
64908;BME280;69061;52.236;5.188;2023-04-07T04:23:57;101456.25;;;10.78;87.98
64908;BME280;69061;52.236;5.188;2023-04-07T04:26:24;101457.09;;;10.82;88.57
64908;BME280;69061;52.236;5.188;2023-04-07T04:28:50;101459.47;;;10.87;87.90
64908;BME280;69061;52.236;5.188;2023-04-07T04:31:17;101467.91;;;10.89;87.82
64908;BME280;69061;52.236;5.188;2023-04-07T04:33:44;101454.44;;;10.82;87.80
64908;BME280;69061;52.236;5.188;2023-04-07T04:36:10;101460.59;;;10.86;87.96
64908;BME280;69061;52.236;5.188;2023-04-07T04:38:38;101467.06;;;10.85;87.15
64908;BME280;69061;52.236;5.188;2023-04-07T04:41:05;101470.81;;;10.84;87.14
64908;BME280;69061;52.236;5.188;2023-04-07T04:43:31;101474.69;;;10.87;86.59
64908;BME280;69061;52.236;5.188;2023-04-07T04:45:58;101468.53;;;10.83;86.42
64908;BME280;69061;52.236;5.188;2023-04-07T04:48:24;101469.97;;;10.80;86.68
64908;BME280;69061;52.236;5.188;2023-04-07T04:50:51;101475.31;;;10.80;85.87
64908;BME280;69061;52.236;5.188;2023-04-07T04:53:18;101477.88;;;10.76;86.78
64908;BME280;69061;52.236;5.188;2023-04-07T04:55:46;101478.31;;;10.78;87.04
64908;BME280;69061;52.236;5.188;2023-04-07T04:58:16;101479.78;;;10.76;87.11
64908;BME280;69061;52.236;5.188;2023-04-07T05:00:43;101484.75;;;10.77;86.35
64908;BME280;69061;52.236;5.188;2023-04-07T05:03:09;101470.25;;;10.75;86.89
64908;BME280;69061;52.236;5.188;2023-04-07T05:05:36;101492.44;;;10.83;86.78
64908;BME280;69061;52.236;5.188;2023-04-07T05:08:03;101493.66;;;10.85;86.91
64908;BME280;69061;52.236;5.188;2023-04-07T05:10:30;101491.31;;;10.84;86.35
64908;BME280;69061;52.236;5.188;2023-04-07T05:12:57;101489.44;;;10.84;85.90
64908;BME280;69061;52.236;5.188;2023-04-07T05:15:24;101495.03;;;10.79;86.10
64908;BME280;69061;52.236;5.188;2023-04-07T05:17:51;101496.94;;;10.78;86.65
64908;BME280;69061;52.236;5.188;2023-04-07T05:20:17;101495.03;;;10.79;86.72
64908;BME280;69061;52.236;5.188;2023-04-07T05:22:44;101489.28;;;10.77;86.86
64908;BME280;69061;52.236;5.188;2023-04-07T05:25:11;101501.88;;;10.80;87.05
64908;BME280;69061;52.236;5.188;2023-04-07T05:27:37;101503.00;;;10.79;88.03
64908;BME280;69061;52.236;5.188;2023-04-07T05:30:07;101495.78;;;10.79;88.26
64908;BME280;69061;52.236;5.188;2023-04-07T05:32:33;101496.50;;;10.76;88.09
64908;BME280;69061;52.236;5.188;2023-04-07T05:35:00;101506.41;;;10.79;87.74
64908;BME280;69061;52.236;5.188;2023-04-07T05:37:26;101507.22;;;10.80;88.82
64908;BME280;69061;52.236;5.188;2023-04-07T05:39:53;101511.06;;;10.83;88.76
64908;BME280;69061;52.236;5.188;2023-04-07T05:42:19;101503.84;;;10.83;88.34
64908;BME280;69061;52.236;5.188;2023-04-07T05:44:46;101497.25;;;10.77;87.49
64908;BME280;69061;52.236;5.188;2023-04-07T05:47:14;101512.88;;;10.78;87.82
64908;BME280;69061;52.236;5.188;2023-04-07T05:49:40;101508.59;;;10.74;87.63
64908;BME280;69061;52.236;5.188;2023-04-07T05:52:10;101514.25;;;10.72;88.16
64908;BME280;69061;52.236;5.188;2023-04-07T05:54:37;101521.53;;;10.75;88.36
64908;BME280;69061;52.236;5.188;2023-04-07T05:57:04;101518.81;;;10.72;87.53
64908;BME280;69061;52.236;5.188;2023-04-07T05:59:31;101518.72;;;10.68;87.74
64908;BME280;69061;52.236;5.188;2023-04-07T06:01:58;101524.13;;;10.72;88.03
64908;BME280;69061;52.236;5.188;2023-04-07T06:04:28;101508.28;;;10.59;88.19
64908;BME280;69061;52.236;5.188;2023-04-07T06:06:55;101529.84;;;10.74;87.79
64908;BME280;69061;52.236;5.188;2023-04-07T06:09:22;101532.50;;;10.74;88.03
64908;BME280;69061;52.236;5.188;2023-04-07T06:11:48;101527.53;;;10.72;89.03
64908;BME280;69061;52.236;5.188;2023-04-07T06:14:16;101532.16;;;10.75;88.85
64908;BME280;69061;52.236;5.188;2023-04-07T06:16:43;101536.03;;;10.78;88.65
64908;BME280;69061;52.236;5.188;2023-04-07T06:19:09;101533.72;;;10.76;88.76
64908;BME280;69061;52.236;5.188;2023-04-07T06:21:37;101536.03;;;10.78;89.35
64908;BME280;69061;52.236;5.188;2023-04-07T06:24:05;101541.34;;;10.78;89.40
64908;BME280;69061;52.236;5.188;2023-04-07T06:26:32;101542.63;;;10.84;89.32
64908;BME280;69061;52.236;5.188;2023-04-07T06:28:58;101542.38;;;10.89;89.48
64908;BME280;69061;52.236;5.188;2023-04-07T06:31:25;101536.84;;;10.98;89.79
64908;BME280;69061;52.236;5.188;2023-04-07T06:33:52;101549.09;;;11.03;88.24
64908;BME280;69061;52.236;5.188;2023-04-07T06:36:19;101544.53;;;11.03;88.01
64908;BME280;69061;52.236;5.188;2023-04-07T06:38:48;101541.19;;;11.06;88.05
64908;BME280;69061;52.236;5.188;2023-04-07T06:41:15;101535.81;;;11.03;87.84
64908;BME280;69061;52.236;5.188;2023-04-07T06:43:42;101548.06;;;11.07;87.31
64908;BME280;69061;52.236;5.188;2023-04-07T06:46:08;101553.38;;;11.07;88.18
64908;BME280;69061;52.236;5.188;2023-04-07T06:48:35;101552.75;;;11.14;87.68
64908;BME280;69061;52.236;5.188;2023-04-07T06:51:02;101544.63;;;11.07;86.66
64908;BME280;69061;52.236;5.188;2023-04-07T06:53:29;101563.41;;;11.14;87.30
64908;BME280;69061;52.236;5.188;2023-04-07T06:56:04;101563.81;;;11.16;87.18
64908;BME280;69061;52.236;5.188;2023-04-07T06:58:30;101561.31;;;11.23;87.10
64908;BME280;69061;52.236;5.188;2023-04-07T07:00:57;101570.84;;;11.24;86.83
64908;BME280;69061;52.236;5.188;2023-04-07T07:03:24;101569.06;;;11.32;86.76
64908;BME280;69061;52.236;5.188;2023-04-07T07:05:53;101572.59;;;11.36;86.27
64908;BME280;69061;52.236;5.188;2023-04-07T07:08:20;101577.63;;;11.41;85.27
64908;BME280;69061;52.236;5.188;2023-04-07T07:10:47;101576.09;;;11.40;85.63
64908;BME280;69061;52.236;5.188;2023-04-07T07:13:15;101585.69;;;11.45;85.55
64908;BME280;69061;52.236;5.188;2023-04-07T07:15:41;101588.78;;;11.47;84.98
64908;BME280;69061;52.236;5.188;2023-04-07T07:18:08;101585.44;;;11.50;85.28
64908;BME280;69061;52.236;5.188;2023-04-07T07:20:35;101586.66;;;11.56;85.32
64908;BME280;69061;52.236;5.188;2023-04-07T07:23:01;101586.59;;;11.53;84.96
64908;BME280;69061;52.236;5.188;2023-04-07T07:25:28;101595.44;;;11.57;84.73
64908;BME280;69061;52.236;5.188;2023-04-07T07:27:55;101587.88;;;11.59;84.36
64908;BME280;69061;52.236;5.188;2023-04-07T07:30:23;101594.66;;;11.56;84.11
64908;BME280;69061;52.236;5.188;2023-04-07T07:32:50;101596.63;;;11.59;83.88
64908;BME280;69061;52.236;5.188;2023-04-07T07:35:18;101595.78;;;11.55;82.96
64908;BME280;69061;52.236;5.188;2023-04-07T07:37:44;101604.91;;;11.54;82.75
64908;BME280;69061;52.236;5.188;2023-04-07T07:40:11;101601.81;;;11.52;82.20
64908;BME280;69061;52.236;5.188;2023-04-07T07:42:38;101605.31;;;11.56;82.75
64908;BME280;69061;52.236;5.188;2023-04-07T07:45:05;101604.59;;;11.59;82.39
64908;BME280;69061;52.236;5.188;2023-04-07T07:47:33;101616.81;;;11.60;82.42
64908;BME280;69061;52.236;5.188;2023-04-07T07:50:02;101616.81;;;11.60;82.02
64908;BME280;69061;52.236;5.188;2023-04-07T07:52:28;101620.16;;;11.57;81.79
64908;BME280;69061;52.236;5.188;2023-04-07T07:54:55;101616.81;;;11.60;82.10
64908;BME280;69061;52.236;5.188;2023-04-07T07:57:22;101617.91;;;11.59;81.89
64908;BME280;69061;52.236;5.188;2023-04-07T07:59:48;101622.91;;;11.61;81.96
64908;BME280;69061;52.236;5.188;2023-04-07T08:02:15;101632.94;;;11.68;81.63
64908;BME280;69061;52.236;5.188;2023-04-07T08:04:43;101632.59;;;11.69;81.75
64908;BME280;69061;52.236;5.188;2023-04-07T08:07:09;101622.28;;;11.68;81.34
64908;BME280;69061;52.236;5.188;2023-04-07T08:09:36;101633.78;;;11.72;81.37
64908;BME280;69061;52.236;5.188;2023-04-07T08:12:03;101628.44;;;11.72;80.82
64908;BME280;69061;52.236;5.188;2023-04-07T08:14:29;101635.72;;;11.75;80.67
64908;BME280;69061;52.236;5.188;2023-04-07T08:16:56;101631.59;;;11.77;81.27
64908;BME280;69061;52.236;5.188;2023-04-07T08:19:22;101645.41;;;11.83;80.39
64908;BME280;69061;52.236;5.188;2023-04-07T08:21:50;101635.50;;;11.84;80.13
64908;BME280;69061;52.236;5.188;2023-04-07T08:24:17;101644.63;;;11.83;79.81
64908;BME280;69061;52.236;5.188;2023-04-07T08:26:44;101640.44;;;11.82;79.21
64908;BME280;69061;52.236;5.188;2023-04-07T08:29:10;101640.47;;;11.85;79.96
64908;BME280;69061;52.236;5.188;2023-04-07T08:31:37;101643.81;;;11.78;79.37
64908;BME280;69061;52.236;5.188;2023-04-07T08:34:03;101653.78;;;11.85;80.05
64908;BME280;69061;52.236;5.188;2023-04-07T08:36:31;101661.47;;;11.87;79.24
64908;BME280;69061;52.236;5.188;2023-04-07T08:38:59;101661.47;;;11.87;80.00
64908;BME280;69061;52.236;5.188;2023-04-07T08:41:29;101658.50;;;11.92;79.96
64908;BME280;69061;52.236;5.188;2023-04-07T08:43:57;101667.72;;;11.94;79.96
64908;BME280;69061;52.236;5.188;2023-04-07T08:46:24;101664.75;;;12.00;79.37
64908;BME280;69061;52.236;5.188;2023-04-07T08:48:51;101663.56;;;11.97;79.42
64908;BME280;69061;52.236;5.188;2023-04-07T08:51:26;101657.88;;;11.99;78.58
64908;BME280;69061;52.236;5.188;2023-04-07T08:53:53;101659.44;;;12.00;78.88
64908;BME280;69061;52.236;5.188;2023-04-07T08:56:25;101676.97;;;12.01;78.09
64908;BME280;69061;52.236;5.188;2023-04-07T08:58:52;101662.53;;;12.02;78.69
64908;BME280;69061;52.236;5.188;2023-04-07T09:01:19;101665.31;;;12.09;78.65
64908;BME280;69061;52.236;5.188;2023-04-07T09:03:47;101660.44;;;12.11;79.05
64908;BME280;69061;52.236;5.188;2023-04-07T09:06:14;101659.72;;;12.14;78.77
64908;BME280;69061;52.236;5.188;2023-04-07T09:08:41;101669.03;;;12.24;77.79
64908;BME280;69061;52.236;5.188;2023-04-07T09:11:08;101675.06;;;12.21;77.64
64908;BME280;69061;52.236;5.188;2023-04-07T09:13:36;101684.25;;;12.23;78.04
64908;BME280;69061;52.236;5.188;2023-04-07T09:16:03;101680.53;;;12.28;77.49
64908;BME280;69061;52.236;5.188;2023-04-07T09:18:30;101678.94;;;12.23;77.02
64908;BME280;69061;52.236;5.188;2023-04-07T09:20:59;101681.94;;;12.22;76.57
64908;BME280;69061;52.236;5.188;2023-04-07T09:23:30;101688.75;;;12.19;76.67
64908;BME280;69061;52.236;5.188;2023-04-07T09:25:57;101677.31;;;12.19;77.31
64908;BME280;69061;52.236;5.188;2023-04-07T09:28:44;101696.44;;;12.24;77.72
64908;BME280;69061;52.236;5.188;2023-04-07T09:31:11;101693.50;;;12.29;77.43
64908;BME280;69061;52.236;5.188;2023-04-07T09:33:38;101695.16;;;12.38;76.31
64908;BME280;69061;52.236;5.188;2023-04-07T09:36:05;101693.63;;;12.37;75.49
64908;BME280;69061;52.236;5.188;2023-04-07T09:38:32;101690.66;;;12.42;76.06
64908;BME280;69061;52.236;5.188;2023-04-07T09:41:04;101696.81;;;12.46;75.34
64908;BME280;69061;52.236;5.188;2023-04-07T09:43:31;101693.88;;;12.51;75.01
64908;BME280;69061;52.236;5.188;2023-04-07T09:46:07;101700.31;;;12.50;73.92
64908;BME280;69061;52.236;5.188;2023-04-07T09:48:34;101692.31;;;12.50;74.38
64908;BME280;69061;52.236;5.188;2023-04-07T09:51:04;101692.31;;;12.50;74.34
64908;BME280;69061;52.236;5.188;2023-04-07T09:53:41;101690.81;;;12.49;74.11
64908;BME280;69061;52.236;5.188;2023-04-07T09:56:08;101691.38;;;12.39;73.73
64908;BME280;69061;52.236;5.188;2023-04-07T09:58:37;101698.81;;;12.29;73.25
64908;BME280;69061;52.236;5.188;2023-04-07T10:01:05;101682.78;;;12.06;73.31
64908;BME280;69061;52.236;5.188;2023-04-07T10:03:34;101701.03;;;12.04;73.92
64908;BME280;69061;52.236;5.188;2023-04-07T10:06:01;101694.63;;;11.89;74.13
64908;BME280;69061;52.236;5.188;2023-04-07T10:08:30;101703.16;;;11.79;74.32
64908;BME280;69061;52.236;5.188;2023-04-07T10:10:58;101701.47;;;11.71;74.43
64908;BME280;69061;52.236;5.188;2023-04-07T10:13:27;101705.09;;;11.62;75.32
64908;BME280;69061;52.236;5.188;2023-04-07T10:15:54;101702.16;;;11.68;75.51
64908;BME280;69061;52.236;5.188;2023-04-07T10:18:22;101698.19;;;11.77;76.01
64908;BME280;69061;52.236;5.188;2023-04-07T10:20:52;101700.63;;;11.86;75.10
64908;BME280;69061;52.236;5.188;2023-04-07T10:23:21;101699.25;;;11.92;75.74
64908;BME280;69061;52.236;5.188;2023-04-07T10:25:52;101701.44;;;12.06;75.80
64908;BME280;69061;52.236;5.188;2023-04-07T10:28:21;101701.63;;;12.17;75.15
64908;BME280;69061;52.236;5.188;2023-04-07T10:30:49;101718.59;;;12.28;74.72
64908;BME280;69061;52.236;5.188;2023-04-07T10:33:17;101719.38;;;12.29;74.02
64908;BME280;69061;52.236;5.188;2023-04-07T10:36:05;101724.72;;;12.29;73.10
64908;BME280;69061;52.236;5.188;2023-04-07T10:38:32;101724.34;;;12.30;73.80
64908;BME280;69061;52.236;5.188;2023-04-07T10:40:58;101729.41;;;12.36;73.69
64908;BME280;69061;52.236;5.188;2023-04-07T10:43:38;101735.22;;;12.41;73.03
64908;BME280;69061;52.236;5.188;2023-04-07T10:46:06;101736.13;;;12.49;73.71
64908;BME280;69061;52.236;5.188;2023-04-07T10:48:32;101737.72;;;12.54;73.50
64908;BME280;69061;52.236;5.188;2023-04-07T10:51:14;101740.31;;;12.50;71.57
64908;BME280;69061;52.236;5.188;2023-04-07T10:57:04;101731.91;;;12.48;72.06
64908;BME280;69061;52.236;5.188;2023-04-07T10:59:32;101733.38;;;12.45;72.08
64908;BME280;69061;52.236;5.188;2023-04-07T11:02:32;101742.16;;;12.46;72.04
64908;BME280;69061;52.236;5.188;2023-04-07T11:04:59;101738.84;;;12.53;71.84
64908;BME280;69061;52.236;5.188;2023-04-07T11:07:48;101749.59;;;12.56;72.41
64908;BME280;69061;52.236;5.188;2023-04-07T11:10:15;101746.63;;;12.61;71.85
64908;BME280;69061;52.236;5.188;2023-04-07T11:12:56;101748.94;;;12.63;70.97
64908;BME280;69061;52.236;5.188;2023-04-07T11:15:23;101745.63;;;12.70;71.28
64908;BME280;69061;52.236;5.188;2023-04-07T11:18:09;101746.03;;;12.72;70.96
64908;BME280;69061;52.236;5.188;2023-04-07T11:20:41;101753.72;;;12.73;70.91
64908;BME280;69061;52.236;5.188;2023-04-07T11:23:09;101735.25;;;12.64;71.10
64908;BME280;69061;52.236;5.188;2023-04-07T11:25:36;101753.34;;;12.75;70.97
64908;BME280;69061;52.236;5.188;2023-04-07T11:28:03;101756.41;;;12.77;71.21
64908;BME280;69061;52.236;5.188;2023-04-07T11:30:30;101750.31;;;12.76;71.16
64908;BME280;69061;52.236;5.188;2023-04-07T11:32:57;101757.22;;;12.77;71.66
64908;BME280;69061;52.236;5.188;2023-04-07T11:35:24;101756.84;;;12.79;71.17
64908;BME280;69061;52.236;5.188;2023-04-07T11:37:56;101756.50;;;12.80;71.70
64908;BME280;69061;52.236;5.188;2023-04-07T11:40:35;101756.13;;;12.82;70.39
64908;BME280;69061;52.236;5.188;2023-04-07T11:43:14;101760.22;;;12.76;71.09
64908;BME280;69061;52.236;5.188;2023-04-07T11:45:41;101767.38;;;12.72;70.99
64908;BME280;69061;52.236;5.188;2023-04-07T11:48:26;101772.66;;;12.68;71.11
64908;BME280;69061;52.236;5.188;2023-04-07T11:50:53;101771.81;;;12.64;71.07
64908;BME280;69061;52.236;5.188;2023-04-07T11:53:25;101767.97;;;12.61;72.27
64908;BME280;69061;52.236;5.188;2023-04-07T11:56:00;101775.69;;;12.67;72.06
64908;BME280;69061;52.236;5.188;2023-04-07T11:58:26;101773.41;;;12.69;72.22
64908;BME280;69061;52.236;5.188;2023-04-07T12:00:53;101773.78;;;12.67;71.91
64908;BME280;69061;52.236;5.188;2023-04-07T12:03:20;101782.53;;;12.68;71.52
64908;BME280;69061;52.236;5.188;2023-04-07T12:05:47;101785.56;;;12.66;72.04
64908;BME280;69061;52.236;5.188;2023-04-07T12:08:14;101786.75;;;12.69;72.55
64908;BME280;69061;52.236;5.188;2023-04-07T12:10:41;101780.22;;;12.66;72.01
64908;BME280;69061;52.236;5.188;2023-04-07T12:13:09;101785.94;;;12.64;71.89
64908;BME280;69061;52.236;5.188;2023-04-07T12:15:35;101783.69;;;12.67;71.55
64908;BME280;69061;52.236;5.188;2023-04-07T12:18:02;101794.34;;;12.67;71.99
64908;BME280;69061;52.236;5.188;2023-04-07T12:20:29;101784.81;;;12.66;71.73
64908;BME280;69061;52.236;5.188;2023-04-07T12:22:56;101788.59;;;12.64;72.19
64908;BME280;69061;52.236;5.188;2023-04-07T12:25:24;101795.47;;;12.66;72.10
64908;BME280;69061;52.236;5.188;2023-04-07T12:27:51;101796.19;;;12.62;71.75
64908;BME280;69061;52.236;5.188;2023-04-07T12:30:19;101802.19;;;12.59;72.84
64908;BME280;69061;52.236;5.188;2023-04-07T12:32:46;101802.84;;;12.53;72.27
64908;BME280;69061;52.236;5.188;2023-04-07T12:35:13;101799.69;;;12.47;72.47
64908;BME280;69061;52.236;5.188;2023-04-07T12:37:39;101808.41;;;12.44;73.01
64908;BME280;69061;52.236;5.188;2023-04-07T12:40:07;101814.84;;;12.43;74.11
64908;BME280;69061;52.236;5.188;2023-04-07T12:42:33;101812.66;;;12.49;73.71
64908;BME280;69061;52.236;5.188;2023-04-07T12:45:00;101812.31;;;12.50;73.33
64908;BME280;69061;52.236;5.188;2023-04-07T12:47:28;101818.00;;;12.49;73.61
64908;BME280;69061;52.236;5.188;2023-04-07T12:49:55;101817.63;;;12.50;73.80
64908;BME280;69061;52.236;5.188;2023-04-07T12:52:22;101816.13;;;12.49;74.06
64908;BME280;69061;52.236;5.188;2023-04-07T12:54:48;101820.75;;;12.52;73.95
64908;BME280;69061;52.236;5.188;2023-04-07T12:57:15;101815.06;;;12.54;74.22
64908;BME280;69061;52.236;5.188;2023-04-07T12:59:41;101826.91;;;12.56;73.98